createdAt,value
2023-08-11T00:01:17.477Z,4.01
2023-08-11T00:03:44.300Z,3.99
2023-08-11T00:06:10.858Z,4.00
2023-08-11T00:08:37.593Z,3.98
2023-08-11T00:11:04.177Z,4.40
2023-08-11T00:13:30.757Z,4.20
2023-08-11T00:15:57.393Z,4.23
2023-08-11T00:18:24.328Z,4.29
2023-08-11T00:20:51.031Z,4.27
2023-08-11T00:23:17.608Z,4.08
2023-08-11T00:25:44.239Z,3.90
2023-08-11T00:28:10.775Z,3.56
2023-08-11T00:30:37.390Z,4.15
2023-08-11T00:33:04.018Z,4.15
2023-08-11T00:35:30.639Z,4.05
2023-08-11T00:37:57.504Z,4.19
2023-08-11T00:40:24.111Z,3.89
2023-08-11T00:42:50.808Z,4.08
2023-08-11T00:45:17.428Z,3.98
2023-08-11T00:47:44.121Z,4.04
2023-08-11T00:50:10.800Z,3.75
2023-08-11T00:52:37.470Z,4.06
2023-08-11T00:55:04.142Z,4.18
2023-08-11T00:57:30.760Z,4.16
2023-08-11T00:59:57.639Z,4.20
2023-08-11T01:02:24.325Z,4.28
2023-08-11T01:04:50.885Z,4.38
2023-08-11T01:07:17.447Z,4.18
2023-08-11T01:09:43.996Z,4.00
2023-08-11T01:12:10.615Z,4.07
2023-08-11T01:14:37.236Z,4.09
2023-08-11T01:17:03.941Z,3.90
2023-08-11T01:19:30.586Z,3.94
2023-08-11T01:21:57.183Z,4.22
2023-08-11T01:24:23.806Z,4.08
2023-08-11T01:26:50.360Z,4.22
2023-08-11T01:29:17.000Z,4.32
2023-08-11T01:31:46.663Z,4.13
2023-08-11T01:34:13.341Z,4.25
2023-08-11T01:36:39.932Z,4.04
2023-08-11T01:39:06.613Z,3.92
2023-08-11T01:41:33.161Z,4.23
2023-08-11T01:43:59.712Z,4.59
2023-08-11T01:46:26.363Z,4.45
2023-08-11T01:48:53.021Z,4.45
2023-08-11T01:51:19.678Z,4.33
2023-08-11T01:53:46.295Z,4.40
2023-08-11T01:56:12.887Z,4.18
2023-08-11T01:58:39.430Z,4.29
2023-08-11T02:01:06.042Z,4.00
2023-08-11T02:03:32.763Z,4.00
2023-08-11T02:05:59.437Z,3.96
2023-08-11T02:08:26.087Z,3.97
2023-08-11T02:10:52.636Z,4.10
2023-08-11T02:13:19.255Z,4.29
2023-08-11T02:15:45.909Z,3.87
2023-08-11T02:18:12.500Z,4.23
2023-08-11T02:20:39.150Z,3.85
2023-08-11T02:23:05.787Z,4.12
2023-08-11T02:25:32.373Z,3.83
2023-08-11T02:27:59.039Z,3.86
2023-08-11T02:30:25.620Z,4.08
2023-08-11T02:32:52.279Z,4.01
2023-08-11T02:35:19.190Z,4.25
2023-08-11T02:37:45.832Z,4.40
2023-08-11T02:40:12.450Z,4.24
2023-08-11T02:42:39.030Z,4.20
2023-08-11T02:45:05.810Z,3.90
2023-08-11T02:47:32.511Z,4.00
2023-08-11T02:49:59.134Z,4.19
2023-08-11T02:52:25.733Z,4.01
2023-08-11T02:54:52.364Z,4.05
2023-08-11T02:57:18.966Z,4.10
2023-08-11T02:59:45.565Z,3.94
2023-08-11T03:02:12.365Z,3.97
2023-08-11T03:04:39.011Z,3.75
2023-08-11T03:07:05.627Z,4.05
2023-08-11T03:09:32.280Z,3.97
2023-08-11T03:11:58.814Z,4.18
2023-08-11T03:14:26.427Z,3.77
2023-08-11T03:16:53.076Z,4.16
2023-08-11T03:19:19.672Z,3.98
2023-08-11T03:21:46.307Z,4.00
2023-08-11T03:24:14.626Z,4.46
2023-08-11T03:26:41.480Z,3.98
2023-08-11T03:29:08.045Z,3.71
2023-08-11T03:31:34.718Z,3.75
2023-08-11T03:34:01.317Z,3.91
2023-08-11T03:36:29.030Z,3.83
2023-08-11T03:38:55.622Z,4.01
2023-08-11T03:41:22.226Z,4.14
2023-08-11T03:43:48.838Z,4.23
2023-08-11T03:46:15.494Z,3.91
2023-08-11T03:48:42.133Z,4.13
2023-08-11T03:51:08.753Z,4.00
2023-08-11T03:53:35.395Z,3.95
2023-08-11T03:56:02.043Z,4.15
2023-08-11T03:58:28.631Z,3.96
2023-08-11T04:00:55.329Z,4.11
2023-08-11T04:03:22.077Z,4.00
2023-08-11T04:05:48.778Z,4.12
2023-08-11T04:08:15.388Z,4.41
2023-08-11T04:10:41.988Z,4.35
2023-08-11T04:13:11.570Z,4.14
2023-08-11T04:15:38.187Z,4.06
2023-08-11T04:18:04.963Z,3.81
2023-08-11T04:20:31.531Z,3.99
2023-08-11T04:22:58.149Z,4.01
2023-08-11T04:25:24.752Z,4.04
2023-08-11T04:27:51.465Z,4.32
2023-08-11T04:30:18.028Z,4.30
2023-08-11T04:32:44.795Z,4.13
2023-08-11T04:35:11.486Z,4.11
2023-08-11T04:37:38.122Z,4.26
2023-08-11T04:40:04.757Z,4.31
2023-08-11T04:42:31.279Z,4.28
2023-08-11T04:44:58.000Z,4.12
2023-08-11T04:47:24.573Z,4.38
2023-08-11T04:49:51.248Z,4.43
2023-08-11T04:52:17.851Z,4.44
2023-08-11T04:54:44.500Z,4.16
2023-08-11T04:57:11.089Z,4.45
2023-08-11T04:59:37.756Z,4.59
2023-08-11T05:02:04.380Z,4.45
2023-08-11T05:04:31.032Z,4.76
2023-08-11T05:06:57.643Z,4.79
2023-08-11T05:09:27.113Z,4.60
2023-08-11T05:11:53.773Z,5.11
2023-08-11T05:14:20.476Z,5.17
2023-08-11T05:16:47.029Z,5.22
2023-08-11T05:19:13.575Z,5.37
2023-08-11T05:21:40.171Z,5.34
2023-08-11T05:24:06.687Z,4.94
2023-08-11T05:26:33.306Z,4.68
2023-08-11T05:29:00.039Z,4.81
2023-08-11T05:31:26.863Z,4.70
2023-08-11T05:33:53.464Z,4.78
2023-08-11T05:36:20.032Z,4.93
2023-08-11T05:38:46.686Z,5.26
2023-08-11T05:41:13.305Z,4.83
2023-08-11T05:43:39.885Z,4.99
2023-08-11T05:46:06.521Z,4.91
2023-08-11T05:48:33.218Z,5.36
2023-08-11T05:50:59.871Z,4.96
2023-08-11T05:53:26.452Z,5.11
2023-08-11T05:55:53.028Z,5.17
2023-08-11T05:58:19.560Z,5.48
2023-08-11T06:00:46.114Z,5.31
2023-08-11T06:03:12.752Z,5.45
2023-08-11T06:05:39.377Z,5.32
2023-08-11T06:08:07.136Z,5.58
2023-08-11T06:10:33.885Z,5.04
2023-08-11T06:13:00.553Z,4.54
2023-08-11T06:15:27.141Z,4.54
2023-08-11T06:17:53.800Z,5.02
2023-08-11T06:20:30.149Z,4.88
2023-08-11T06:23:02.050Z,4.92
2023-08-11T15:07:00.099Z,3.19
2023-08-11T15:09:26.712Z,3.32
2023-08-11T15:11:53.309Z,3.19
2023-08-11T15:14:19.971Z,2.95
2023-08-11T15:16:46.921Z,3.33
2023-08-11T15:19:16.565Z,3.34
2023-08-11T15:21:43.205Z,3.66
2023-08-11T15:24:09.823Z,3.52
2023-08-11T15:26:36.485Z,3.55
2023-08-11T15:29:03.135Z,3.29
2023-08-11T15:31:29.775Z,3.66
2023-08-11T15:33:56.413Z,5.50
2023-08-11T15:36:24.200Z,5.73
2023-08-11T15:38:50.874Z,6.06
2023-08-11T15:41:17.580Z,6.99
2023-08-11T15:43:44.451Z,6.37
2023-08-11T15:46:11.161Z,6.32
2023-08-11T15:48:37.793Z,5.66
2023-08-11T15:51:04.693Z,5.12
2023-08-11T15:53:31.602Z,4.80
2023-08-11T15:55:58.421Z,4.48
2023-08-11T15:58:25.148Z,4.35
2023-08-11T16:00:51.716Z,4.24
2023-08-11T16:03:18.484Z,4.15
2023-08-11T16:05:45.180Z,3.98
2023-08-11T16:08:11.793Z,4.01
2023-08-11T16:10:38.351Z,3.86
2023-08-11T16:13:04.953Z,3.77
2023-08-11T16:15:31.627Z,3.95
2023-08-11T16:17:58.225Z,4.03
2023-08-11T16:20:24.891Z,3.64
2023-08-11T16:22:51.559Z,3.70
2023-08-11T16:25:18.102Z,3.60
2023-08-11T16:27:44.746Z,3.58
2023-08-11T16:30:11.397Z,3.46
2023-08-11T16:32:38.398Z,3.47
2023-08-11T16:35:05.012Z,3.38
2023-08-11T16:37:31.639Z,3.46
2023-08-11T16:39:58.204Z,3.69
2023-08-11T16:42:24.819Z,3.49
2023-08-11T16:44:56.365Z,3.69
2023-08-11T16:47:22.995Z,3.63
2023-08-11T16:49:49.621Z,3.45
2023-08-11T16:52:16.187Z,3.44
2023-08-11T16:54:42.747Z,3.45
2023-08-11T16:57:09.325Z,3.64
2023-08-11T16:59:35.942Z,3.54
2023-08-11T17:02:02.560Z,3.28
2023-08-11T17:04:29.177Z,3.18
2023-08-11T17:06:59.161Z,3.26
2023-08-11T17:09:25.912Z,3.30
2023-08-11T17:11:52.491Z,3.24
2023-08-11T17:14:19.038Z,3.23
2023-08-11T17:16:45.674Z,3.10
2023-08-11T17:33:20.576Z,3.01
2023-08-11T17:35:47.171Z,3.30
2023-08-11T17:38:13.768Z,3.16
2023-08-11T17:40:40.357Z,3.12
2023-08-11T17:43:07.108Z,2.88
2023-08-11T17:45:33.820Z,2.99
2023-08-11T17:48:00.557Z,3.13
2023-08-11T17:50:27.176Z,3.13
2023-08-11T17:52:53.776Z,3.06
2023-08-11T17:55:20.329Z,3.19
2023-08-11T17:57:46.948Z,3.30
2023-08-11T18:00:13.634Z,3.14
2023-08-11T18:02:41.991Z,3.24
2023-08-11T18:05:09.365Z,2.91
2023-08-11T18:07:35.909Z,3.24
2023-08-11T18:10:02.438Z,3.32
2023-08-11T18:12:28.988Z,3.11
2023-08-11T18:14:55.585Z,3.25
2023-08-11T18:17:22.267Z,3.22
2023-08-11T18:19:48.886Z,3.62
2023-08-11T18:22:15.566Z,3.61
2023-08-11T18:24:42.254Z,3.66
2023-08-11T18:27:08.872Z,3.79
2023-08-11T18:29:35.524Z,4.05
2023-08-11T18:32:02.139Z,4.12
2023-08-11T18:34:28.690Z,4.32
2023-08-11T18:36:55.309Z,4.84
2023-08-11T18:39:21.917Z,5.44
2023-08-11T18:41:48.528Z,5.29
2023-08-11T18:44:15.158Z,5.47
2023-08-11T18:52:09.802Z,3.94
2023-08-11T18:54:36.690Z,3.80
2023-08-11T18:57:03.273Z,3.94
2023-08-11T18:59:29.838Z,3.89
2023-08-11T19:01:56.409Z,4.33
2023-08-11T19:04:22.949Z,4.62
2023-08-11T19:06:49.562Z,4.25
2023-08-11T19:09:16.275Z,4.04
2023-08-11T19:11:42.849Z,4.46
2023-08-11T19:14:09.463Z,4.16
2023-08-11T19:16:36.197Z,4.33
2023-08-11T19:19:02.778Z,4.39
2023-08-11T19:21:29.379Z,4.00
2023-08-11T19:23:55.980Z,4.12
2023-08-11T19:26:22.621Z,4.02
2023-08-11T19:28:50.153Z,3.73
2023-08-11T19:31:20.058Z,4.08
2023-08-11T19:33:46.849Z,4.10
2023-08-11T19:36:13.508Z,3.81
2023-08-11T19:38:40.102Z,3.97
2023-08-11T19:41:06.786Z,3.71
2023-08-11T19:43:33.427Z,3.85
2023-08-11T19:45:59.979Z,4.17
2023-08-11T19:48:26.608Z,3.98
2023-08-11T19:50:53.218Z,3.90
2023-08-11T19:53:19.883Z,3.89
2023-08-11T19:55:46.570Z,3.96
2023-08-11T19:58:13.310Z,3.96
2023-08-11T20:00:39.949Z,4.28
2023-08-11T20:03:08.360Z,4.22
2023-08-11T20:05:35.153Z,4.15
2023-08-11T20:08:01.836Z,4.04
2023-08-11T20:10:28.456Z,4.00
2023-08-11T20:12:55.089Z,4.11
2023-08-11T20:15:21.719Z,4.34
2023-08-11T20:17:48.423Z,4.11
2023-08-11T20:20:15.051Z,3.87
2023-08-11T20:22:41.643Z,4.24
2023-08-11T20:25:08.295Z,4.05
2023-08-11T20:27:34.852Z,3.91
2023-08-11T20:30:01.460Z,4.16
2023-08-11T20:32:28.202Z,3.92
2023-08-11T20:34:54.842Z,3.92
2023-08-11T20:37:21.538Z,4.07
2023-08-11T20:39:48.146Z,4.12
2023-08-11T20:42:14.743Z,4.22
2023-08-11T20:44:41.334Z,4.31
2023-08-11T20:47:08.093Z,4.35
2023-08-11T20:49:34.776Z,4.34
2023-08-11T20:52:01.379Z,4.33
2023-08-11T20:54:28.025Z,4.33
2023-08-11T20:56:54.597Z,5.97
2023-08-11T20:59:21.204Z,5.85
2023-08-11T21:01:47.857Z,4.72
2023-08-11T21:04:14.537Z,4.70
2023-08-11T21:06:41.103Z,4.44
2023-08-11T21:09:09.576Z,4.34
2023-08-11T21:11:36.160Z,4.49
2023-08-11T21:14:02.758Z,4.53
2023-08-11T21:16:29.424Z,4.77
2023-08-11T21:18:56.031Z,5.00
2023-08-11T21:21:22.686Z,4.97
2023-08-11T21:23:49.314Z,5.35
2023-08-11T21:26:15.900Z,5.22
2023-08-11T21:28:42.551Z,4.84
2023-08-11T21:31:17.736Z,4.77
2023-08-11T21:33:45.095Z,4.78
2023-08-11T21:36:11.724Z,4.89
2023-08-11T21:38:38.406Z,5.18
2023-08-11T21:41:05.088Z,5.07
2023-08-11T21:43:31.696Z,4.80
2023-08-11T21:45:58.236Z,4.95
2023-08-11T21:48:24.904Z,4.78
2023-08-11T21:50:51.489Z,4.80
2023-08-11T21:53:23.434Z,4.92
2023-08-11T21:55:50.430Z,5.00
2023-08-11T21:58:17.076Z,4.90
2023-08-11T22:00:43.724Z,4.90
2023-08-11T22:03:10.404Z,4.63
2023-08-11T22:05:37.055Z,5.19
2023-08-11T22:08:03.665Z,5.13
2023-08-11T22:10:30.280Z,5.21
2023-08-11T22:12:56.989Z,5.01
2023-08-11T22:15:23.631Z,4.81
2023-08-11T22:17:50.307Z,5.16
2023-08-11T22:20:16.938Z,5.22
2023-08-11T22:22:43.536Z,4.93
2023-08-11T22:25:10.299Z,5.14
2023-08-11T22:27:36.893Z,5.12
2023-08-11T22:30:03.542Z,4.84
2023-08-11T22:32:30.300Z,5.12
2023-08-11T22:34:57.170Z,5.23
2023-08-11T22:37:23.797Z,4.97
2023-08-11T22:39:50.402Z,4.90
2023-08-11T22:42:17.015Z,4.77
2023-08-11T22:44:43.633Z,4.89
2023-08-11T22:47:10.406Z,4.94
2023-08-11T22:49:37.306Z,4.54
2023-08-11T22:52:03.911Z,4.51
2023-08-11T22:54:30.593Z,4.75
2023-08-11T22:56:57.178Z,4.58
2023-08-11T22:59:23.810Z,4.84
2023-08-11T23:01:50.491Z,4.85
2023-08-11T23:04:17.147Z,4.87
2023-08-11T23:06:43.801Z,4.66
2023-08-11T23:09:10.362Z,4.91
2023-08-11T23:11:37.070Z,4.63
2023-08-11T23:14:03.707Z,4.73
2023-08-11T23:16:30.484Z,4.66
2023-08-11T23:18:57.093Z,4.61
2023-08-11T23:21:23.746Z,4.76
2023-08-11T23:23:53.117Z,5.01
2023-08-11T23:26:19.775Z,4.69
2023-08-11T23:28:46.425Z,4.94
2023-08-11T23:31:13.088Z,5.27
2023-08-11T23:33:39.770Z,5.12
2023-08-11T23:36:06.382Z,5.26
2023-08-11T23:38:33.009Z,5.18
2023-08-11T23:40:59.629Z,4.98
2023-08-11T23:43:26.260Z,5.13
2023-08-11T23:45:52.918Z,4.99
2023-08-11T23:48:19.611Z,4.90
2023-08-11T23:50:46.315Z,5.08
2023-08-11T23:53:12.929Z,5.30
2023-08-11T23:55:39.631Z,5.03
2023-08-11T23:58:06.288Z,5.03
